Time;durP1;ratioP1;P1;durP2;ratioP2;P2;SDS_P1;SDS_P2;PMS_P1;PMS_P2;Temp;Humidity;BMP_temperature;BMP_pressure;BME280_temperature;BME280_humidity;BME280_pressure;Samples;Min_cycle;Max_cycle;Signal;HPM_P1;HPM_P2
2023/08/19 07:01:50;;;;;;;0.68;0.68;;;25.40;99.90;28.30;100937.00;;;;6091958;22;4262679;-74
2023/08/19 07:04:52;;;;;;;6.47;3.20;;;25.30;99.90;28.30;100979.00;;;;6259573;22;20168;-73
2023/08/19 07:07:54;;;;;;;1.42;1.33;;;25.40;99.90;28.00;100986.00;;;;6282396;22;20234;-73
2023/08/19 07:11:04;;;;;;;0.77;0.77;;;25.20;99.90;28.20;100978.00;;;;6281520;22;20160;-74
2023/08/19 07:14:08;;;;;;;2.08;1.98;;;25.40;99.90;28.50;100985.00;;;;6301149;22;20167;-73
2023/08/19 07:17:05;;;;;;;0.13;0.13;;;25.40;99.90;29.00;101003.00;;;;6283224;22;20132;-73
2023/08/19 07:19:59;;;;;;;1.17;1.17;;;25.70;99.90;29.70;101012.00;;;;6250202;22;20161;-73
2023/08/19 07:22:55;;;;;;;4.25;2.88;;;26.10;99.90;29.50;101011.00;;;;6274108;22;20191;-73
2023/08/19 07:26:15;;;;;;;1.42;1.33;;;25.90;99.90;29.30;101005.00;;;;6281382;22;20156;-72
2023/08/19 07:29:03;;;;;;;2.20;2.00;;;25.80;99.90;29.30;101013.00;;;;6292053;22;20153;-72
2023/08/19 07:31:46;;;;;;;1.98;1.73;;;25.90;99.90;28.50;101009.00;;;;6282051;22;20160;-72
2023/08/19 07:34:52;;;;;;;0.20;0.20;;;25.60;99.90;28.70;101016.00;;;;6283294;22;20148;-72
2023/08/19 07:37:36;;;;;;;2.42;2.28;;;25.60;99.90;29.10;101033.00;;;;6285019;22;20159;-72
2023/08/19 07:40:19;;;;;;;2.60;2.40;;;25.70;99.90;29.60;101040.00;;;;6281490;22;20163;-73
2023/08/19 07:43:07;;;;;;;4.22;2.88;;;25.90;99.90;28.80;101043.00;;;;6281833;22;20600;-72
2023/08/19 07:46:04;;;;;;;0.32;0.32;;;25.70;99.90;30.30;101066.00;;;;6281395;22;20156;-73
2023/08/19 07:48:55;;;;;;;3.42;3.15;;;26.10;99.90;29.30;101060.00;;;;6282450;22;20176;-72
2023/08/19 07:51:42;;;;;;;1.85;1.75;;;26.00;99.90;30.50;101077.00;;;;6281263;22;20141;-72
2023/08/19 07:54:45;;;;;;;0.43;0.40;;;26.40;99.90;30.10;101078.00;;;;6255440;22;20218;-73
2023/08/19 07:57:46;;;;;;;2.47;1.88;;;26.40;99.90;29.90;101071.00;;;;6261929;22;20197;-72
2023/08/19 08:00:30;;;;;;;0.10;0.10;;;26.40;99.90;31.20;101078.00;;;;6243110;22;20259;-72
2023/08/19 08:03:39;;;;;;;3.10;2.88;;;27.00;99.90;30.60;101084.00;;;;6250646;22;20172;-72
2023/08/19 08:06:25;;;;;;;1.63;1.50;;;27.70;99.90;31.40;101066.00;;;;6250651;22;20137;-73
2023/08/19 08:08:51;;;;;;;5.50;3.45;;;27.60;99.90;31.00;101111.00;;;;6250846;22;20601;-73
2023/08/19 08:11:54;;;;;;;0.77;0.77;;;27.70;99.90;30.90;101107.00;;;;6225351;22;20153;-73
2023/08/19 08:14:46;;;;;;;0.63;0.63;;;27.40;99.90;33.10;101131.00;;;;6225396;22;20156;-73
2023/08/19 08:17:40;;;;;;;0.20;0.20;;;28.30;99.90;33.70;101146.00;;;;6251870;22;20156;-72
2023/08/19 08:20:31;;;;;;;0.10;0.10;;;29.10;99.90;34.10;101177.00;;;;6251925;22;20158;-73
2023/08/19 08:23:31;;;;;;;0.10;0.10;;;29.50;99.90;34.10;101178.00;;;;6250997;22;20165;-73
2023/08/19 08:26:31;;;;;;;0.45;0.45;;;29.50;99.90;34.30;101201.00;;;;6206427;22;20188;-73
2023/08/19 08:29:31;;;;;;;0.20;0.20;;;29.50;99.90;34.00;101201.00;;;;6227557;22;20160;-72
2023/08/19 08:32:15;;;;;;;0.20;0.20;;;29.30;99.90;33.80;101223.00;;;;6251137;22;20574;-73
2023/08/19 08:35:04;;;;;;;3.58;2.38;;;29.30;99.90;30.40;101167.00;;;;6277460;22;20141;-72
2023/08/19 08:37:54;;;;;;;3.85;3.55;;;28.10;99.90;29.70;101170.00;;;;6250277;22;20164;-73
2023/08/19 08:40:43;;;;;;;0.50;0.50;;;26.90;99.90;29.40;101176.00;;;;6277290;22;20577;-72
2023/08/19 08:43:29;;;;;;;2.40;2.20;;;26.60;99.90;31.20;101204.00;;;;6250619;22;20218;-72
2023/08/19 08:46:22;;;;;;;9.50;7.82;;;27.30;99.90;30.90;101164.00;;;;6224943;22;20160;-72
2023/08/19 08:49:08;;;;;;;0.65;0.65;;;27.40;99.90;31.50;101189.00;;;;6225774;22;20164;-73
2023/08/19 08:51:57;;;;;;;0.65;0.65;;;27.80;99.90;30.30;101209.00;;;;6227241;22;20472;-72
2023/08/19 08:54:55;;;;;;;6.90;5.63;;;27.50;99.90;30.50;101216.00;;;;6250342;22;20220;-73
2023/08/19 08:57:29;;;;;;;2.58;2.35;;;27.30;99.90;31.00;101181.00;;;;6225101;22;20164;-72
2023/08/19 09:00:17;;;;;;;0.22;0.22;;;27.60;99.90;32.30;101187.00;;;;6258456;22;20172;-72
2023/08/19 09:02:55;;;;;;;1.00;0.98;;;28.10;99.90;32.00;101230.00;;;;6281709;22;20207;-72
2023/08/19 09:05:41;;;;;;;3.28;2.20;;;28.00;99.90;30.50;101204.00;;;;6255241;22;20202;-73
2023/08/19 09:08:48;;;;;;;3.58;3.22;;;27.40;99.90;29.60;101203.00;;;;6280760;22;20144;-73
2023/08/19 09:11:41;;;;;;;0.20;0.20;;;27.00;99.90;31.30;101218.00;;;;6307993;22;20155;-72
2023/08/19 09:14:31;;;;;;;1.27;1.20;;;27.00;99.90;31.40;101230.00;;;;6281294;22;20219;-72
2023/08/19 09:17:21;;;;;;;1.38;1.27;;;27.40;99.90;29.90;101222.00;;;;6254344;22;20160;-72
2023/08/19 09:20:00;;;;;;;3.47;2.85;;;27.00;99.90;28.80;101243.00;;;;6255477;22;20214;-73
2023/08/19 09:22:49;;;;;;;1.60;1.48;;;26.10;99.90;28.40;101242.00;;;;6279923;22;20179;-72
2023/08/19 09:25:42;;;;;;;2.50;1.75;;;25.80;99.90;28.50;101249.00;;;;6255223;22;20253;-73
2023/08/19 09:28:17;;;;;;;2.50;2.30;;;25.60;99.90;28.00;101254.00;;;;6280408;22;20473;-72
2023/08/19 09:31:20;;;;;;;1.80;1.55;;;25.50;99.90;28.70;101261.00;;;;6280393;22;20177;-72
2023/08/19 09:34:13;;;;;;;2.28;1.83;;;25.60;99.90;30.80;101283.00;;;;6280058;22;20647;-73
2023/08/19 09:36:47;;;;;;;0.55;0.55;;;26.30;99.90;28.90;101264.00;;;;6273329;22;20180;-72
2023/08/19 09:39:41;;;;;;;1.27;1.27;;;26.10;99.90;28.70;101263.00;;;;6307899;22;20142;-73
2023/08/19 09:42:20;;;;;;;0.30;0.30;;;26.00;99.90;29.30;101267.00;;;;6255303;22;20192;-72
2023/08/19 09:45:14;;;;;;;0.10;0.10;;;25.90;99.90;31.30;101304.00;;;;6255892;22;20152;-72
2023/08/19 09:47:53;;;;;;;0.10;0.10;;;26.70;99.90;32.60;101308.00;;;;6280674;22;20163;-70
2023/08/19 09:50:27;;;;;;;0.40;0.40;;;27.70;99.90;32.90;101287.00;;;;6280450;22;20580;-73
2023/08/19 09:53:22;;;;;;;1.60;1.52;;;28.30;99.90;34.00;101338.00;;;;6255884;22;20195;-72
2023/08/19 09:56:28;;;;;;;2.25;2.15;;;29.40;99.90;31.60;101322.00;;;;6307917;22;20607;-72
2023/08/19 09:59:13;;;;;;;1.25;1.23;;;28.30;99.90;30.10;101309.00;;;;6236219;22;20156;-72
2023/08/19 10:01:48;;;;;;;4.28;2.72;;;27.40;99.90;30.30;101326.00;;;;6250028;22;20271;-73
2023/08/19 10:04:53;;;;;;;1.75;1.52;;;26.90;99.90;29.60;101327.00;;;;6249242;22;20474;-73
2023/08/19 10:07:32;;;;;;;2.38;1.48;;;26.70;99.90;29.60;101334.00;;;;6250509;22;20282;-72
2023/08/19 10:10:18;;;;;;;3.85;2.00;;;26.30;99.90;29.90;101340.00;;;;6249412;22;20144;-72
2023/08/19 10:12:56;;;;;;;3.22;2.75;;;26.30;99.90;28.70;101327.00;;;;6249626;22;20537;-72
2023/08/19 10:15:47;;;;;;;2.65;1.38;;;26.20;99.90;29.20;101314.00;;;;6223118;22;20165;-72
2023/08/19 10:18:44;;;;;;;0.20;0.20;;;25.90;99.90;31.40;101333.00;;;;6249207;22;20160;-72
2023/08/19 10:33:46;;;;;;;0.82;0.82;;;25.00;99.90;28.40;101351.00;;;;5110792;27;20578;-72
2023/08/19 10:36:17;;;;;;;1.90;1.80;;;25.30;99.90;28.70;101374.00;;;;5086689;28;20178;-72
2023/08/19 10:39:07;;;;;;;0.98;0.95;;;25.60;99.90;28.70;101342.00;;;;5087794;28;20268;-72
2023/08/19 10:41:59;;;;;;;0.20;0.20;;;25.70;99.90;30.80;101395.00;;;;5090604;28;20192;-73
2023/08/19 10:44:34;;;;;;;1.08;1.08;;;26.30;99.90;28.70;101390.00;;;;5086670;28;20188;-73
2023/08/19 10:47:13;;;;;;;3.58;1.88;;;26.00;99.90;29.20;101430.00;;;;5088976;28;20664;-73
2023/08/19 10:49:54;;;;;;;2.80;2.03;;;25.80;99.90;27.40;101419.00;;;;5098754;28;20177;-72
2023/08/19 10:56:28;;;;;;;2.50;1.10;;;25.10;99.90;28.20;101378.00;;;;5086019;28;20189;-73
2023/08/19 10:59:04;;;;;;;0.45;0.45;;;25.00;99.90;29.20;101422.00;;;;5063476;28;20189;-72
2023/08/19 11:01:47;;;;;;;0.75;0.75;;;25.40;99.90;28.20;101393.00;;;;5085420;28;20205;-72
2023/08/19 11:04:14;;;;;;;0.15;0.15;;;25.50;99.90;29.40;101420.00;;;;5058178;28;20228;-72
2023/08/19 11:06:42;;;;;;;0.63;0.63;;;25.30;99.90;28.10;101411.00;;;;5053580;28;20191;-72
2023/08/19 11:09:29;;;;;;;0.73;0.73;;;25.30;99.90;27.70;101427.00;;;;5088573;28;20272;-72
2023/08/19 11:12:29;;;;;;;0.10;0.10;;;24.70;99.90;28.40;101432.00;;;;5081104;28;20204;-72
2023/08/19 11:15:07;;;;;;;0.85;0.85;;;25.00;99.90;28.60;101433.00;;;;5082308;28;20228;-73
2023/08/19 11:17:55;;;;;;;1.42;0.98;;;25.00;99.90;28.90;101439.00;;;;5105355;28;20177;-72
2023/08/19 11:20:45;;;;;;;2.28;1.45;;;25.20;99.90;27.90;101441.00;;;;5101072;28;20254;-72
2023/08/19 11:23:52;;;;;;;2.47;2.00;;;25.20;99.90;27.60;101482.00;;;;5105584;28;20185;-72
2023/08/19 11:26:29;;;;;;;0.10;0.10;;;24.80;99.90;29.20;101480.00;;;;5089185;28;20193;-72
2023/08/19 11:29:07;;;;;;;0.10;0.10;;;25.10;99.90;29.80;101498.00;;;;5105336;28;20630;-72
2023/08/19 11:32:00;;;;;;;0.10;0.10;;;25.50;99.90;30.60;101500.00;;;;5105121;28;20221;-72
2023/08/19 11:34:29;;;;;;;0.55;0.30;;;26.20;99.90;28.50;101483.00;;;;5105196;28;20515;-71
2023/08/19 11:37:18;;;;;;;0.82;0.82;;;25.60;99.90;27.70;101434.00;;;;5104334;28;20185;-72
2023/08/19 11:39:47;;;;;;;0.20;0.20;;;25.40;99.90;28.90;101440.00;;;;5104264;28;20270;-72
2023/08/19 11:42:30;;;;;;;0.85;0.85;;;25.00;99.90;29.90;101466.00;;;;5105207;28;20238;-71
2023/08/19 11:45:16;;;;;;;0.22;0.22;;;25.50;99.90;28.30;101448.00;;;;5090181;28;20177;-72
2023/08/19 11:47:45;;;;;;;3.25;1.30;;;25.30;99.90;28.10;101438.00;;;;5088654;28;20651;-71
2023/08/19 11:50:37;;;;;;;0.80;0.80;;;25.00;99.90;26.80;101479.00;;;;5091372;28;20181;-71
2023/08/19 11:53:27;;;;;;;1.10;0.82;;;24.40;99.90;26.40;101434.00;;;;5073792;28;20197;-71
2023/08/19 11:56:14;;;;;;;1.58;1.40;;;24.10;99.90;26.20;101455.00;;;;5086205;28;20216;-71
2023/08/19 11:58:53;;;;;;;0.73;0.73;;;23.90;99.90;25.90;101477.00;;;;5091069;28;20193;-71
2023/08/19 12:01:36;;;;;;;1.70;0.93;;;23.70;99.90;27.30;101475.00;;;;5083732;28;20209;-71
2023/08/19 12:04:22;;;;;;;0.25;0.15;;;23.90;99.90;28.40;101492.00;;;;5090768;28;20204;-72
2023/08/19 12:07:10;;;;;;;0.20;0.20;;;24.40;99.90;29.20;101519.00;;;;5067318;28;20747;-72
2023/08/19 12:10:01;;;;;;;1.48;1.17;;;24.90;99.90;27.30;101503.00;;;;5073823;28;20651;-72
2023/08/19 12:12:59;;;;;;;0.63;0.50;;;24.60;99.90;27.70;101514.00;;;;5066489;28;20202;-72
2023/08/19 12:15:48;;;;;;;0.52;0.52;;;24.60;99.90;27.90;101501.00;;;;5090797;28;20721;-72
2023/08/19 12:18:34;;;;;;;3.03;2.17;;;24.50;99.90;28.30;101506.00;;;;5090347;28;20339;-72
2023/08/19 12:21:19;;;;;;;0.10;0.10;;;24.50;99.90;27.60;101519.00;;;;5090908;28;20190;-71
2023/08/19 12:24:10;;;;;;;3.97;1.20;;;24.40;99.90;27.40;101523.00;;;;5090987;28;20227;-71
2023/08/19 12:27:14;;;;;;;3.60;1.08;;;24.30;99.90;27.20;101531.00;;;;5077249;28;20204;-72
2023/08/19 12:30:05;;;;;;;0.10;0.10;;;24.10;99.90;27.20;101515.00;;;;5075218;28;20630;-71
2023/08/19 12:32:52;;;;;;;0.10;0.10;;;24.00;99.90;27.70;101503.00;;;;5088758;28;20697;-71
2023/08/19 12:35:53;;;;;;;0.20;0.20;;;24.00;99.90;26.80;101505.00;;;;5081387;28;20196;-72
2023/08/19 12:38:42;;;;;;;0.90;0.90;;;23.90;99.90;26.50;101541.00;;;;5080288;28;20178;-72
2023/08/19 12:41:27;;;;;;;0.40;0.40;;;23.90;99.90;26.70;101539.00;;;;5073081;28;20208;-72
2023/08/19 12:44:25;;;;;;;4.18;1.65;;;23.90;99.90;27.30;101552.00;;;;5073834;28;20182;-71
2023/08/19 12:47:13;;;;;;;0.98;0.88;;;23.90;99.90;26.30;101551.00;;;;5074460;28;20186;-73
2023/08/19 12:50:31;;;;;;;0.10;0.10;;;23.80;99.90;27.60;101532.00;;;;5073175;28;20190;-72
2023/08/19 12:53:38;;;;;;;1.15;1.05;;;24.00;99.90;27.80;101560.00;;;;5089644;28;20679;-72
2023/08/19 12:56:41;;;;;;;1.02;0.93;;;24.40;99.90;27.80;101556.00;;;;5083814;28;20278;-72
2023/08/19 12:59:31;;;;;;;5.53;1.58;;;24.50;99.90;28.20;101556.00;;;;5069518;28;20315;-72
2023/08/19 13:02:35;;;;;;;0.10;0.10;;;24.60;99.90;28.60;101552.00;;;;5087332;28;20286;-72
2023/08/19 13:05:39;;;;;;;0.10;0.10;;;24.60;99.90;29.90;101575.00;;;;5073039;28;20181;-71
2023/08/19 13:08:44;;;;;;;2.20;0.55;;;25.20;99.90;29.00;101578.00;;;;5072665;28;20634;-71
2023/08/19 13:11:48;;;;;;;1.30;0.77;;;25.50;99.90;29.50;101586.00;;;;5072835;28;20335;-71
2023/08/19 13:14:49;;;;;;;3.80;2.67;;;25.50;99.90;28.40;101567.00;;;;5084585;28;20246;-73
2023/08/19 13:17:47;;;;;;;1.65;1.55;;;25.20;99.90;28.60;101569.00;;;;5076045;28;20204;-71
2023/08/19 13:20:48;;;;;;;0.10;0.10;;;25.40;99.90;29.20;101558.00;;;;5072715;28;20195;-71
2023/08/19 13:23:45;;;;;;;0.10;0.10;;;25.30;99.90;28.70;101568.00;;;;5089307;28;20536;-71
2023/08/19 13:26:39;;;;;;;0.10;0.10;;;25.40;99.90;30.30;101609.00;;;;5087686;28;20180;-72
2023/08/19 13:29:46;;;;;;;0.40;0.40;;;26.10;99.90;29.00;101595.00;;;;5074002;28;20190;-72
2023/08/19 13:32:37;;;;;;;0.35;0.35;;;26.00;99.90;30.90;101578.00;;;;5082987;28;20297;-71
2023/08/19 13:35:55;;;;;;;0.20;0.20;;;26.30;99.90;31.10;101645.00;;;;5070406;28;20264;-71
2023/08/19 13:38:55;;;;;;;0.10;0.10;;;26.70;99.90;29.90;101619.00;;;;5088847;28;20182;-71
2023/08/19 13:41:32;;;;;;;0.10;0.10;;;26.30;99.90;31.80;101657.00;;;;5088261;28;20177;-71
2023/08/19 13:44:53;;;;;;;0.10;0.10;;;27.00;99.90;32.90;101682.00;;;;5088835;28;20553;-71
2023/08/19 13:47:54;;;;;;;1.02;0.98;;;27.50;99.90;30.00;101688.00;;;;5063109;28;20190;-71
2023/08/19 13:50:46;;;;;;;0.40;0.40;;;27.00;99.90;30.10;101642.00;;;;5086293;28;20191;-72
2023/08/19 13:53:47;;;;;;;0.35;0.35;;;26.50;99.90;28.50;101582.00;;;;5088872;28;20205;-71
2023/08/19 13:56:49;;;;;;;0.10;0.10;;;26.00;99.90;29.60;101600.00;;;;5068960;28;20181;-72
2023/08/19 13:59:50;;;;;;;0.10;0.10;;;25.80;99.90;30.60;101631.00;;;;5082327;28;20661;-71
2023/08/19 14:02:46;;;;;;;1.17;1.17;;;26.10;99.90;31.20;101633.00;;;;5082901;28;20181;-71
2023/08/19 14:05:40;;;;;;;0.30;0.30;;;26.60;99.90;31.40;101682.00;;;;5080686;28;20668;-71
2023/08/19 14:08:47;;;;;;;0.10;0.10;;;26.90;99.90;32.40;101682.00;;;;5071401;28;20186;-71
2023/08/19 14:15:05;;;;;;;0.13;0.13;;;26.80;99.90;31.00;101673.00;;;;5071777;28;20610;-71
2023/08/19 14:18:08;;;;;;;0.30;0.28;;;27.00;99.90;30.70;101697.00;;;;5068961;28;20273;-71
2023/08/19 14:21:35;;;;;;;0.43;0.30;;;26.90;99.90;30.00;101708.00;;;;5072854;28;20550;-71
2023/08/19 14:24:28;;;;;;;0.25;0.25;;;27.10;99.90;29.90;101674.00;;;;5056089;28;20212;-70
2023/08/19 14:27:23;;;;;;;0.10;0.10;;;26.30;99.90;30.20;101638.00;;;;5088680;28;20235;-71
2023/08/19 14:30:27;;;;;;;0.10;0.10;;;26.30;99.90;30.90;101694.00;;;;5085106;28;20185;-71
2023/08/19 14:33:21;;;;;;;0.60;0.43;;;26.70;99.90;30.50;101672.00;;;;5087858;28;20240;-71
2023/08/19 14:36:22;;;;;;;0.45;0.45;;;26.40;99.90;30.30;101689.00;;;;5088171;28;20197;-71
2023/08/19 14:39:23;;;;;;;0.10;0.10;;;26.70;99.90;30.40;101675.00;;;;5083823;28;20192;-71
2023/08/19 14:42:24;;;;;;;0.10;0.10;;;26.50;99.90;30.50;101673.00;;;;5088443;28;20189;-71
2023/08/19 14:45:25;;;;;;;0.30;0.30;;;26.50;99.90;30.90;101700.00;;;;5079490;28;20211;-72
2023/08/19 14:48:36;;;;;;;0.20;0.20;;;27.00;99.90;32.00;101692.00;;;;5076221;28;20657;-72
2023/08/19 14:51:34;;;;;;;0.10;0.10;;;27.20;99.90;31.10;101718.00;;;;5073034;28;20208;-71
2023/08/19 14:54:45;;;;;;;0.80;0.75;;;27.10;99.90;30.90;101708.00;;;;5086505;28;20666;-71
2023/08/19 14:57:49;;;;;;;0.10;0.10;;;27.00;99.90;30.50;101717.00;;;;5070706;28;20201;-72
2023/08/19 15:00:45;;;;;;;0.10;0.10;;;26.90;99.90;29.70;101659.00;;;;5071110;28;20718;-71
2023/08/19 15:03:55;;;;;;;0.52;0.52;;;26.40;99.90;30.80;101692.00;;;;5083240;28;20221;-71
2023/08/19 15:07:00;;;;;;;0.10;0.10;;;26.50;99.90;31.50;101706.00;;;;5082749;28;20273;-71
2023/08/19 15:10:01;;;;;;;0.10;0.10;;;27.00;99.90;32.60;101707.00;;;;5081531;28;20186;-72
2023/08/19 15:13:03;;;;;;;0.10;0.10;;;27.70;99.90;32.60;101702.00;;;;5080102;28;20541;-71
2023/08/19 15:16:27;;;;;;;0.20;0.20;;;27.60;99.90;33.70;101699.00;;;;5076963;28;20190;-72
2023/08/19 15:19:20;;;;;;;0.10;0.10;;;28.30;99.90;33.70;101697.00;;;;5072646;28;20182;-71
2023/08/19 15:22:36;;;;;;;0.63;0.63;;;28.80;99.90;32.60;101713.00;;;;5056297;28;20292;-71
2023/08/19 15:25:27;;;;;;;0.10;0.10;;;28.10;99.90;33.60;101709.00;;;;5090660;28;20706;-71
2023/08/19 15:28:30;;;;;;;3.90;0.80;;;28.40;99.90;31.90;101734.00;;;;5079169;28;20765;-70
2023/08/19 15:31:31;;;;;;;0.10;0.10;;;28.30;99.90;31.00;101753.00;;;;5090927;28;20607;-71
2023/08/19 15:34:35;;;;;;;0.80;0.68;;;27.10;99.90;31.00;101754.00;;;;5090799;28;20190;-71
2023/08/19 15:37:23;;;;;;;0.22;0.22;;;27.20;99.90;30.80;101751.00;;;;5091201;28;20589;-71
2023/08/19 15:40:24;;;;;;;1.10;0.43;;;27.20;99.90;30.00;101737.00;;;;5091511;28;20651;-71
2023/08/19 15:43:20;;;;;;;0.47;0.47;;;26.60;99.90;30.90;101731.00;;;;5067863;28;20181;-71
2023/08/19 15:46:24;;;;;;;0.40;0.40;;;26.60;99.90;29.80;101710.00;;;;5080308;28;20189;-71
2023/08/19 15:49:29;;;;;;;1.98;0.52;;;26.60;99.90;30.20;101734.00;;;;5079189;28;20170;-71
2023/08/19 15:52:30;;;;;;;0.30;0.30;;;26.30;99.90;30.80;101686.00;;;;5087509;28;20216;-71
2023/08/19 15:55:49;;;;;;;0.20;0.20;;;26.30;99.90;30.80;101729.00;;;;5089907;28;20265;-71
2023/08/19 15:59:10;;;;;;;0.10;0.10;;;26.90;99.90;31.30;101700.00;;;;5070852;28;20213;-71
2023/08/19 16:02:22;;;;;;;0.75;0.75;;;26.80;99.90;31.30;101728.00;;;;5046272;28;20644;-71
2023/08/19 16:05:34;;;;;;;2.85;1.27;;;27.00;99.90;30.60;101738.00;;;;5064129;28;20247;-71
2023/08/19 16:08:42;;;;;;;0.10;0.10;;;26.80;99.90;31.40;101716.00;;;;5086628;28;20172;-72
2023/08/19 16:11:51;;;;;;;0.20;0.20;;;26.80;99.90;31.20;101704.00;;;;5083324;28;20182;-71
2023/08/19 16:14:36;;;;;;;0.20;0.20;;;27.40;99.90;31.10;101728.00;;;;5057211;28;20645;-71
2023/08/19 16:17:40;;;;;;;0.10;0.10;;;26.80;99.90;31.10;101731.00;;;;5090811;28;20272;-71
2023/08/19 16:20:34;;;;;;;0.15;0.15;;;26.60;99.90;30.80;101729.00;;;;5073876;28;20517;-71
2023/08/19 16:23:38;;;;;;;0.20;0.20;;;26.70;99.90;31.40;101728.00;;;;5090704;28;20270;-71
2023/08/19 16:26:57;;;;;;;0.35;0.35;;;27.00;99.90;30.70;101708.00;;;;5083759;28;20180;-71
2023/08/19 16:30:00;;;;;;;0.38;0.38;;;27.00;99.90;29.80;101737.00;;;;5088516;28;20230;-70
2023/08/19 16:32:54;;;;;;;0.10;0.10;;;26.40;99.90;30.90;101725.00;;;;5084505;28;20232;-71
2023/08/19 16:35:40;;;;;;;0.10;0.10;;;26.50;99.90;32.30;101732.00;;;;5068675;28;20548;-71
2023/08/19 16:38:44;;;;;;;0.10;0.10;;;27.20;99.90;31.40;101741.00;;;;5090426;28;20181;-71
2023/08/19 16:41:45;;;;;;;0.10;0.10;;;27.20;99.90;31.80;101738.00;;;;5088314;28;20236;-71
2023/08/19 16:44:31;;;;;;;0.17;0.17;;;27.10;99.90;29.90;101733.00;;;;5074571;28;20181;-70
2023/08/19 16:47:42;;;;;;;0.20;0.20;;;26.80;99.90;30.60;101723.00;;;;5088442;28;20277;-71
2023/08/19 16:50:53;;;;;;;0.20;0.20;;;26.60;99.90;30.40;101720.00;;;;5086318;28;20217;-71
2023/08/19 16:53:56;;;;;;;0.20;0.20;;;26.30;99.90;30.30;101726.00;;;;5090332;28;20205;-71
2023/08/19 16:57:06;;;;;;;0.20;0.20;;;26.30;99.90;30.70;101740.00;;;;5089550;28;20276;-70
2023/08/19 17:00:25;;;;;;;0.40;0.40;;;26.50;99.90;30.30;101745.00;;;;5069214;28;20201;-71
2023/08/19 17:03:13;;;;;;;0.15;0.15;;;26.20;99.90;29.70;101761.00;;;;5087083;28;20273;-71
2023/08/19 17:06:01;;;;;;;0.43;0.43;;;26.10;99.90;30.40;101748.00;;;;5085367;28;20533;-71
2023/08/19 17:09:23;;;;;;;0.35;0.35;;;26.00;99.90;30.20;101751.00;;;;5074240;28;20185;-71
2023/08/19 17:12:11;;;;;;;5.47;0.30;;;26.00;99.90;30.30;101759.00;;;;5072638;28;20292;-71
2023/08/19 17:15:22;;;;;;;0.20;0.20;;;26.00;99.90;31.10;101767.00;;;;5089549;28;20223;-72
2023/08/19 17:18:16;;;;;;;0.20;0.20;;;26.40;99.90;30.10;101765.00;;;;5068802;28;20190;-70
2023/08/19 17:21:02;;;;;;;2.63;0.55;;;26.30;99.90;29.40;101748.00;;;;5072869;28;20189;-71
2023/08/19 17:23:58;;;;;;;1.50;0.60;;;25.70;99.90;28.60;101733.00;;;;5089499;28;20212;-71
2023/08/19 17:26:53;;;;;;;0.20;0.20;;;25.20;99.90;29.10;101738.00;;;;5075729;28;20640;-71
2023/08/19 17:29:48;;;;;;;0.35;0.35;;;25.20;99.90;29.00;101727.00;;;;5067106;28;20189;-71
2023/08/19 17:33:03;;;;;;;0.20;0.20;;;25.00;99.90;29.40;101738.00;;;;5059183;28;20261;-72
2023/08/19 17:36:20;;;;;;;0.82;0.77;;;25.20;99.90;28.90;101720.00;;;;5083274;28;20196;-71
2023/08/19 17:39:11;;;;;;;0.20;0.20;;;25.20;99.90;28.40;101746.00;;;;5086304;28;20550;-71
2023/08/19 17:42:17;;;;;;;0.25;0.25;;;25.10;99.90;28.40;101716.00;;;;5082603;28;20198;-73
2023/08/19 17:45:18;;;;;;;0.25;0.25;;;24.70;99.90;29.00;101715.00;;;;5088973;28;20641;-73
2023/08/19 17:48:14;;;;;;;0.20;0.20;;;24.60;99.90;28.40;101746.00;;;;5083409;28;20280;-73
2023/08/19 17:51:22;;;;;;;0.30;0.30;;;24.70;99.90;28.10;101707.00;;;;5080165;28;20201;-73
2023/08/19 17:54:25;;;;;;;0.20;0.20;;;24.40;99.90;28.80;101706.00;;;;5077535;28;20193;-73
2023/08/19 17:57:16;;;;;;;0.30;0.30;;;24.70;99.90;28.40;101727.00;;;;5081889;28;20217;-73
2023/08/19 18:00:01;;;;;;;0.20;0.20;;;24.60;99.90;28.30;101722.00;;;;5071143;28;20254;-73
2023/08/19 18:03:05;;;;;;;0.13;0.13;;;24.50;99.90;27.60;101704.00;;;;5071426;28;20683;-73
2023/08/19 18:06:16;;;;;;;0.65;0.60;;;24.20;99.90;28.00;101713.00;;;;5071989;28;20184;-73
2023/08/19 18:09:24;;;;;;;0.20;0.20;;;24.30;99.90;28.30;101681.00;;;;5087338;28;20186;-73
2023/08/19 18:12:37;;;;;;;0.25;0.20;;;24.20;99.90;26.50;101660.00;;;;5068698;28;20255;-73
2023/08/19 18:15:59;;;;;;;0.43;0.43;;;23.50;99.90;26.30;101668.00;;;;5070129;28;20169;-73
2023/08/19 18:18:45;;;;;;;0.38;0.35;;;23.20;99.90;26.80;101685.00;;;;5084696;28;20654;-72
2023/08/19 18:21:39;;;;;;;0.17;0.17;;;23.20;99.90;27.80;101689.00;;;;5078614;28;20247;-73
2023/08/19 18:24:52;;;;;;;0.10;0.10;;;23.40;99.90;26.90;101648.00;;;;5081004;28;20272;-73
2023/08/19 18:27:53;;;;;;;0.10;0.10;;;23.40;99.90;27.60;101691.00;;;;5080608;28;20184;-72
2023/08/19 18:34:28;;;;;;;1.75;1.63;;;23.60;99.90;27.40;101677.00;;;;5065213;28;20197;-72
2023/08/19 18:37:19;;;;;;;0.30;0.30;;;23.70;99.90;27.30;101679.00;;;;5084428;28;20223;-73
2023/08/19 18:40:18;;;;;;;2.30;0.43;;;23.40;99.90;26.40;101692.00;;;;5088646;28;20212;-73
2023/08/19 18:43:19;;;;;;;0.20;0.20;;;23.00;99.90;27.20;101712.00;;;;5068703;28;20666;-73
2023/08/19 18:46:27;;;;;;;0.30;0.30;;;23.00;99.90;27.30;101698.00;;;;5072214;28;20190;-73
2023/08/19 18:49:34;;;;;;;0.20;0.20;;;23.20;99.90;26.90;101704.00;;;;5088163;28;20234;-72
2023/08/19 18:52:48;;;;;;;0.20;0.20;;;23.20;99.90;26.50;101703.00;;;;5086803;28;20228;-73
2023/08/19 18:55:58;;;;;;;0.30;0.30;;;22.80;99.90;26.70;101713.00;;;;5084659;28;20192;-73
2023/08/19 18:58:43;;;;;;;0.22;0.22;;;22.90;99.90;26.80;101719.00;;;;5075419;28;20520;-72
2023/08/19 19:01:32;;;;;;;0.20;0.20;;;22.80;99.90;26.80;101726.00;;;;5079259;28;20268;-73
2023/08/19 19:04:36;;;;;;;0.20;0.20;;;22.90;99.90;26.20;101684.00;;;;5083757;28;20316;-71
2023/08/19 19:07:20;;;;;;;0.20;0.20;;;22.60;99.90;25.80;101717.00;;;;5090906;28;20189;-74
2023/08/19 19:10:25;;;;;;;0.20;0.20;;;22.30;99.90;26.00;101738.00;;;;5075064;28;20331;-73
2023/08/19 19:13:11;;;;;;;0.20;0.20;;;22.30;99.90;25.00;101716.00;;;;5085234;28;20262;-73
2023/08/19 19:16:15;;;;;;;0.20;0.20;;;22.00;99.90;25.80;101733.00;;;;5084324;28;20173;-73
2023/08/19 19:19:15;;;;;;;0.20;0.20;;;22.00;99.90;26.60;101718.00;;;;5085898;28;20277;-72
2023/08/19 19:22:04;;;;;;;0.30;0.30;;;22.30;99.90;26.40;101732.00;;;;5085680;28;20185;-71
2023/08/19 19:25:13;;;;;;;0.20;0.20;;;22.50;99.90;26.50;101756.00;;;;5091483;28;20186;-73
2023/08/19 19:28:06;;;;;;;0.20;0.20;;;22.40;99.90;25.50;101748.00;;;;5087586;28;20197;-72
2023/08/19 19:31:25;;;;;;;0.22;0.22;;;22.10;99.90;26.20;101771.00;;;;5075022;28;20243;-71
2023/08/19 19:34:19;;;;;;;0.20;0.20;;;22.20;99.90;26.50;101765.00;;;;5069886;28;20254;-71
2023/08/19 19:37:20;;;;;;;0.22;0.22;;;22.30;99.90;26.80;101776.00;;;;5083121;28;20174;-72
2023/08/19 19:40:12;;;;;;;0.20;0.20;;;22.40;99.90;26.40;101752.00;;;;5066555;28;20198;-71
2023/08/19 19:43:16;;;;;;;0.73;0.68;;;22.50;99.90;26.20;101773.00;;;;5085275;28;20189;-71
2023/08/19 19:46:24;;;;;;;1.48;1.38;;;22.30;99.90;26.90;101782.00;;;;5074371;28;20272;-71
2023/08/19 19:49:31;;;;;;;0.20;0.20;;;22.40;99.90;26.40;101781.00;;;;5074213;28;20221;-72
2023/08/19 19:52:26;;;;;;;0.40;0.40;;;22.30;99.90;26.50;101779.00;;;;5071045;28;20255;-70
2023/08/19 19:55:27;;;;;;;0.20;0.20;;;22.30;99.90;25.70;101789.00;;;;5089869;28;20181;-71
2023/08/19 19:58:29;;;;;;;0.20;0.20;;;22.00;99.90;25.60;101774.00;;;;5075455;28;20211;-71
2023/08/19 20:01:53;;;;;;;0.20;0.20;;;21.80;99.90;26.80;101803.00;;;;5089141;28;20200;-70
2023/08/19 20:04:40;;;;;;;0.20;0.20;;;22.10;99.90;26.30;101803.00;;;;5074009;28;20193;-71
2023/08/19 20:07:44;;;;;;;0.20;0.20;;;22.20;99.90;26.80;101807.00;;;;5082928;28;20250;-70
2023/08/19 20:10:45;;;;;;;0.20;0.20;;;22.20;99.90;27.20;101808.00;;;;5081259;28;20178;-71
2023/08/19 20:13:39;;;;;;;0.30;0.30;;;22.50;99.90;27.30;101780.00;;;;5069209;28;20205;-72
2023/08/19 20:16:32;;;;;;;0.30;0.30;;;22.70;99.90;26.90;101813.00;;;;5089741;28;20177;-72